sensor_id;sensor_type;location;lat;lon;timestamp;pressure;altitude;pressure_sealevel;temperature;humidity
67840;BME280;54636;51.684;5.142;2023-09-18T00:00:22;100613.28;;;17.84;100.00
67840;BME280;54636;51.684;5.142;2023-09-18T00:02:48;100611.06;;;17.83;100.00
67840;BME280;54636;51.684;5.142;2023-09-18T00:05:13;100603.75;;;17.85;100.00
67840;BME280;54636;51.684;5.142;2023-09-18T00:07:44;100596.19;;;17.78;100.00
67840;BME280;54636;51.684;5.142;2023-09-18T00:10:11;100573.19;;;17.68;100.00
67840;BME280;54636;51.684;5.142;2023-09-18T00:12:37;100597.84;;;17.81;100.00
67840;BME280;54636;51.684;5.142;2023-09-18T00:15:03;100596.91;;;17.78;100.00
67840;BME280;54636;51.684;5.142;2023-09-18T00:17:28;100594.72;;;17.77;100.00
67840;BME280;54636;51.684;5.142;2023-09-18T00:19:53;100589.69;;;17.68;100.00
67840;BME280;54636;51.684;5.142;2023-09-18T00:22:19;100591.34;;;17.71;100.00
67840;BME280;54636;51.684;5.142;2023-09-18T00:24:44;100591.88;;;17.69;100.00
67840;BME280;54636;51.684;5.142;2023-09-18T00:27:10;100573.09;;;17.60;100.00
67840;BME280;54636;51.684;5.142;2023-09-18T00:29:36;100568.75;;;17.65;100.00
67840;BME280;54636;51.684;5.142;2023-09-18T00:32:02;100502.31;;;17.25;100.00
67840;BME280;54636;51.684;5.142;2023-09-18T00:34:29;100529.78;;;17.45;100.00
67840;BME280;54636;51.684;5.142;2023-09-18T00:36:54;100536.75;;;17.47;100.00
67840;BME280;54636;51.684;5.142;2023-09-18T00:39:20;100538.25;;;17.55;100.00
67840;BME280;54636;51.684;5.142;2023-09-18T00:41:45;100508.47;;;17.38;100.00
67840;BME280;54636;51.684;5.142;2023-09-18T00:44:14;100534.25;;;17.56;100.00
67840;BME280;54636;51.684;5.142;2023-09-18T00:46:40;100514.66;;;17.52;100.00
67840;BME280;54636;51.684;5.142;2023-09-18T00:49:05;100506.13;;;17.42;100.00
67840;BME280;54636;51.684;5.142;2023-09-18T00:51:32;100505.31;;;17.55;100.00
67840;BME280;54636;51.684;5.142;2023-09-18T00:53:58;100489.53;;;17.48;100.00
67840;BME280;54636;51.684;5.142;2023-09-18T00:56:24;100481.50;;;17.50;100.00
67840;BME280;54636;51.684;5.142;2023-09-18T00:58:49;100475.47;;;17.52;100.00
67840;BME280;54636;51.684;5.142;2023-09-18T01:01:18;100496.50;;;17.70;100.00
67840;BME280;54636;51.684;5.142;2023-09-18T01:03:51;100457.13;;;17.47;100.00
67840;BME280;54636;51.684;5.142;2023-09-18T01:06:18;100474.63;;;17.64;100.00
67840;BME280;54636;51.684;5.142;2023-09-18T01:08:45;100480.66;;;17.84;100.00
67840;BME280;54636;51.684;5.142;2023-09-18T01:16:53;100466.72;;;17.82;100.00
67840;BME280;54636;51.684;5.142;2023-09-18T01:19:41;100468.19;;;17.83;100.00
67840;BME280;54636;51.684;5.142;2023-09-18T01:22:10;100463.63;;;17.85;100.00
67840;BME280;54636;51.684;5.142;2023-09-18T01:24:37;100456.28;;;17.80;100.00
67840;BME280;54636;51.684;5.142;2023-09-18T01:27:04;100442.16;;;17.76;100.00
67840;BME280;54636;51.684;5.142;2023-09-18T01:29:30;100440.53;;;17.81;100.00
67840;BME280;54636;51.684;5.142;2023-09-18T01:31:56;100446.81;;;17.89;100.00
67840;BME280;54636;51.684;5.142;2023-09-18T01:34:26;100466.81;;;17.97;100.00
67840;BME280;54636;51.684;5.142;2023-09-18T01:36:55;100459.22;;;17.82;100.00
67840;BME280;54636;51.684;5.142;2023-09-18T01:39:22;100465.91;;;17.94;100.00
67840;BME280;54636;51.684;5.142;2023-09-18T01:41:50;100460.94;;;17.93;100.00
67840;BME280;54636;51.684;5.142;2023-09-18T01:44:15;100460.75;;;17.91;100.00
67840;BME280;54636;51.684;5.142;2023-09-18T01:46:41;100456.88;;;17.86;100.00
67840;BME280;54636;51.684;5.142;2023-09-18T01:49:07;100472.13;;;17.95;100.00
67840;BME280;54636;51.684;5.142;2023-09-18T01:51:32;100455.59;;;17.87;100.00
67840;BME280;54636;51.684;5.142;2023-09-18T01:53:58;100472.31;;;17.97;100.00
67840;BME280;54636;51.684;5.142;2023-09-18T01:56:23;100479.84;;;17.96;100.00
67840;BME280;54636;51.684;5.142;2023-09-18T01:58:49;100465.91;;;17.94;100.00
67840;BME280;54636;51.684;5.142;2023-09-18T02:01:14;100454.31;;;17.88;100.00
67840;BME280;54636;51.684;5.142;2023-09-18T02:03:40;100465.09;;;17.86;100.00
67840;BME280;54636;51.684;5.142;2023-09-18T02:06:06;100464.97;;;17.92;100.00
67840;BME280;54636;51.684;5.142;2023-09-18T02:08:31;100439.19;;;17.74;100.00
67840;BME280;54636;51.684;5.142;2023-09-18T02:10:57;100455.78;;;17.89;100.00
67840;BME280;54636;51.684;5.142;2023-09-18T02:13:22;100473.66;;;18.03;100.00
67840;BME280;54636;51.684;5.142;2023-09-18T02:15:47;100440.97;;;17.92;100.00
67840;BME280;54636;51.684;5.142;2023-09-18T02:18:13;100458.25;;;18.00;100.00
67840;BME280;54636;51.684;5.142;2023-09-18T02:20:41;100439.50;;;17.91;100.00
67840;BME280;54636;51.684;5.142;2023-09-18T02:23:07;100456.44;;;18.03;100.00
67840;BME280;54636;51.684;5.142;2023-09-18T02:25:33;100454.03;;;17.99;100.00
67840;BME280;54636;51.684;5.142;2023-09-18T02:27:58;100458.09;;;18.06;100.00
67840;BME280;54636;51.684;5.142;2023-09-18T02:30:23;100447.84;;;18.06;100.00
67840;BME280;54636;51.684;5.142;2023-09-18T02:32:49;100428.59;;;18.06;100.00
67840;BME280;54636;51.684;5.142;2023-09-18T02:35:14;100422.75;;;18.10;100.00
67840;BME280;54636;51.684;5.142;2023-09-18T02:37:39;100406.22;;;18.02;100.00
67840;BME280;54636;51.684;5.142;2023-09-18T02:40:05;100396.75;;;18.11;100.00
67840;BME280;54636;51.684;5.142;2023-09-18T02:42:31;100416.75;;;18.19;100.00
67840;BME280;54636;51.684;5.142;2023-09-18T02:44:56;100402.28;;;18.19;100.00
67840;BME280;54636;51.684;5.142;2023-09-18T02:47:21;100373.44;;;18.04;100.00
67840;BME280;54636;51.684;5.142;2023-09-18T02:49:47;100384.13;;;18.16;100.00
67840;BME280;54636;51.684;5.142;2023-09-18T02:52:12;100379.34;;;18.16;100.00
67840;BME280;54636;51.684;5.142;2023-09-18T02:54:37;100384.84;;;18.16;100.00
67840;BME280;54636;51.684;5.142;2023-09-18T02:57:03;100371.84;;;18.17;100.00
67840;BME280;54636;51.684;5.142;2023-09-18T02:59:28;100378.81;;;18.18;100.00
67840;BME280;54636;51.684;5.142;2023-09-18T03:01:54;100371.31;;;18.18;100.00
67840;BME280;54636;51.684;5.142;2023-09-18T03:04:19;100360.84;;;18.17;100.00
67840;BME280;54636;51.684;5.142;2023-09-18T03:06:45;100350.03;;;18.19;100.00
67840;BME280;54636;51.684;5.142;2023-09-18T03:09:11;100348.03;;;18.19;100.00
67840;BME280;54636;51.684;5.142;2023-09-18T03:11:36;100350.75;;;18.12;100.00
67840;BME280;54636;51.684;5.142;2023-09-18T03:14:01;100348.75;;;18.12;100.00
67840;BME280;54636;51.684;5.142;2023-09-18T03:16:27;100359.00;;;18.12;100.00
67840;BME280;54636;51.684;5.142;2023-09-18T03:18:52;100310.25;;;17.68;100.00
67840;BME280;54636;51.684;5.142;2023-09-18T03:21:17;100367.25;;;18.12;100.00
67840;BME280;54636;51.684;5.142;2023-09-18T03:23:43;100363.56;;;18.09;100.00
67840;BME280;54636;51.684;5.142;2023-09-18T03:26:08;100370.19;;;18.14;100.00
67840;BME280;54636;51.684;5.142;2023-09-18T03:28:33;100332.69;;;17.88;100.00
67840;BME280;54636;51.684;5.142;2023-09-18T03:30:59;100328.09;;;17.83;100.00
67840;BME280;54636;51.684;5.142;2023-09-18T03:33:24;100369.63;;;18.15;100.00
67840;BME280;54636;51.684;5.142;2023-09-18T03:35:51;100346.72;;;18.13;100.00
67840;BME280;54636;51.684;5.142;2023-09-18T03:38:19;100350.59;;;18.25;100.00
67840;BME280;54636;51.684;5.142;2023-09-18T03:40:46;100340.50;;;18.27;100.00
67840;BME280;54636;51.684;5.142;2023-09-18T03:43:12;100339.44;;;18.30;100.00
67840;BME280;54636;51.684;5.142;2023-09-18T03:45:37;100332.28;;;18.27;100.00
67840;BME280;54636;51.684;5.142;2023-09-18T03:48:04;100330.06;;;18.26;100.00
67840;BME280;54636;51.684;5.142;2023-09-18T03:50:29;100319.25;;;18.28;100.00
67840;BME280;54636;51.684;5.142;2023-09-18T03:52:55;100293.38;;;18.08;100.00
67840;BME280;54636;51.684;5.142;2023-09-18T03:55:20;100307.69;;;18.14;100.00
67840;BME280;54636;51.684;5.142;2023-09-18T03:57:46;100310.63;;;18.16;100.00
67840;BME280;54636;51.684;5.142;2023-09-18T04:00:13;100329.91;;;18.31;100.00
67840;BME280;54636;51.684;5.142;2023-09-18T04:02:39;100311.75;;;18.28;100.00
67840;BME280;54636;51.684;5.142;2023-09-18T04:05:05;100320.91;;;18.23;100.00
67840;BME280;54636;51.684;5.142;2023-09-18T04:07:30;100329.34;;;18.33;100.00
67840;BME280;54636;51.684;5.142;2023-09-18T04:09:56;100344.03;;;18.35;100.00
67840;BME280;54636;51.684;5.142;2023-09-18T04:12:23;100348.78;;;18.35;100.00
67840;BME280;54636;51.684;5.142;2023-09-18T04:14:49;100361.25;;;18.36;100.00
67840;BME280;54636;51.684;5.142;2023-09-18T04:17:15;100335.41;;;18.31;100.00
67840;BME280;54636;51.684;5.142;2023-09-18T04:19:40;100348.81;;;18.42;100.00
67840;BME280;54636;51.684;5.142;2023-09-18T04:22:06;100345.50;;;18.36;100.00
67840;BME280;54636;51.684;5.142;2023-09-18T04:24:31;100318.72;;;18.29;100.00
67840;BME280;54636;51.684;5.142;2023-09-18T04:26:57;100344.78;;;18.43;100.00
67840;BME280;54636;51.684;5.142;2023-09-18T04:29:22;100345.31;;;18.42;100.00
67840;BME280;54636;51.684;5.142;2023-09-18T04:31:47;100342.38;;;18.40;100.00
67840;BME280;54636;51.684;5.142;2023-09-18T04:34:13;100341.47;;;18.45;100.00
67840;BME280;54636;51.684;5.142;2023-09-18T04:36:39;100322.03;;;18.35;100.00
67840;BME280;54636;51.684;5.142;2023-09-18T04:39:05;100333.03;;;18.43;100.00
67840;BME280;54636;51.684;5.142;2023-09-18T04:41:31;100322.78;;;18.43;100.00
67840;BME280;54636;51.684;5.142;2023-09-18T04:43:57;100318.56;;;18.42;100.00
67840;BME280;54636;51.684;5.142;2023-09-18T04:46:22;100300.22;;;18.37;100.00
67840;BME280;54636;51.684;5.142;2023-09-18T04:48:50;100284.81;;;18.27;100.00
67840;BME280;54636;51.684;5.142;2023-09-18T04:51:15;100296.00;;;18.36;100.00
67840;BME280;54636;51.684;5.142;2023-09-18T04:53:41;100285.72;;;18.29;100.00
67840;BME280;54636;51.684;5.142;2023-09-18T04:56:06;100272.72;;;18.30;100.00
67840;BME280;54636;51.684;5.142;2023-09-18T04:58:33;100273.25;;;18.28;100.00
67840;BME280;54636;51.684;5.142;2023-09-18T05:00:59;100267.59;;;18.19;100.00
67840;BME280;54636;51.684;5.142;2023-09-18T05:03:26;100219.13;;;17.85;100.00
67840;BME280;54636;51.684;5.142;2023-09-18T05:05:54;100245.19;;;17.99;100.00
67840;BME280;54636;51.684;5.142;2023-09-18T05:08:20;100260.75;;;18.04;100.00
67840;BME280;54636;51.684;5.142;2023-09-18T05:10:45;100264.97;;;18.05;100.00
67840;BME280;54636;51.684;5.142;2023-09-18T05:13:11;100254.88;;;18.00;100.00
67840;BME280;54636;51.684;5.142;2023-09-18T05:15:37;100256.72;;;17.98;100.00
67840;BME280;54636;51.684;5.142;2023-09-18T05:18:03;100253.22;;;17.90;100.00
67840;BME280;54636;51.684;5.142;2023-09-18T05:20:30;100273.59;;;18.02;100.00
67840;BME280;54636;51.684;5.142;2023-09-18T05:22:56;100261.47;;;17.97;100.00
67840;BME280;54636;51.684;5.142;2023-09-18T05:25:23;100283.47;;;18.05;100.00
67840;BME280;54636;51.684;5.142;2023-09-18T05:27:53;100282.94;;;18.06;100.00
67840;BME280;54636;51.684;5.142;2023-09-18T05:30:25;100266.63;;;18.01;100.00
67840;BME280;54636;51.684;5.142;2023-09-18T05:32:53;100271.75;;;18.04;100.00
67840;BME280;54636;51.684;5.142;2023-09-18T05:35:18;100268.81;;;18.02;100.00
67840;BME280;54636;51.684;5.142;2023-09-18T05:37:44;100276.53;;;18.04;100.00
67840;BME280;54636;51.684;5.142;2023-09-18T05:40:11;100279.66;;;18.16;100.00
67840;BME280;54636;51.684;5.142;2023-09-18T05:42:41;100282.22;;;18.14;100.00
67840;BME280;54636;51.684;5.142;2023-09-18T05:45:13;100268.47;;;18.06;100.00
67840;BME280;54636;51.684;5.142;2023-09-18T05:47:39;100290.63;;;18.08;100.00
67840;BME280;54636;51.684;5.142;2023-09-18T05:50:06;100295.56;;;18.02;100.00
67840;BME280;54636;51.684;5.142;2023-09-18T05:52:33;100290.09;;;18.09;100.00
67840;BME280;54636;51.684;5.142;2023-09-18T05:55:01;100303.28;;;18.11;100.00
67840;BME280;54636;51.684;5.142;2023-09-18T05:57:27;100315.59;;;18.18;100.00
67840;BME280;54636;51.684;5.142;2023-09-18T05:59:55;100303.66;;;18.15;100.00
67840;BME280;54636;51.684;5.142;2023-09-18T06:02:20;100314.13;;;18.24;100.00
67840;BME280;54636;51.684;5.142;2023-09-18T06:04:46;100314.47;;;18.21;100.00
67840;BME280;54636;51.684;5.142;2023-09-18T06:07:11;100317.78;;;18.27;100.00
67840;BME280;54636;51.684;5.142;2023-09-18T06:09:38;100328.81;;;18.42;100.00
67840;BME280;54636;51.684;5.142;2023-09-18T06:12:04;100296.53;;;18.27;100.00
67840;BME280;54636;51.684;5.142;2023-09-18T06:14:30;100320.75;;;18.44;100.00
67840;BME280;54636;51.684;5.142;2023-09-18T06:16:56;100300.19;;;18.30;100.00
67840;BME280;54636;51.684;5.142;2023-09-18T06:19:22;100330.31;;;18.51;100.00
67840;BME280;54636;51.684;5.142;2023-09-18T06:21:47;100317.84;;;18.50;100.00
67840;BME280;54636;51.684;5.142;2023-09-18T06:24:13;100307.94;;;18.39;100.00
67840;BME280;54636;51.684;5.142;2023-09-18T06:26:38;100308.81;;;18.34;100.00
67840;BME280;54636;51.684;5.142;2023-09-18T06:29:04;100315.63;;;18.40;100.00
67840;BME280;54636;51.684;5.142;2023-09-18T06:31:29;100323.66;;;18.31;100.00
67840;BME280;54636;51.684;5.142;2023-09-18T06:33:56;100334.13;;;18.40;100.00
67840;BME280;54636;51.684;5.142;2023-09-18T06:36:24;100344.59;;;18.41;100.00
67840;BME280;54636;51.684;5.142;2023-09-18T06:38:49;100333.22;;;18.45;100.00
67840;BME280;54636;51.684;5.142;2023-09-18T06:41:15;100322.03;;;18.35;100.00
67840;BME280;54636;51.684;5.142;2023-09-18T06:43:40;100351.41;;;18.56;100.00
67840;BME280;54636;51.684;5.142;2023-09-18T06:46:08;100320.94;;;18.46;100.00
67840;BME280;54636;51.684;5.142;2023-09-18T06:48:34;100332.34;;;18.58;100.00
67840;BME280;54636;51.684;5.142;2023-09-18T06:50:59;100347.59;;;18.66;100.00
67840;BME280;54636;51.684;5.142;2023-09-18T06:53:26;100359.91;;;18.73;100.00
67840;BME280;54636;51.684;5.142;2023-09-18T06:55:53;100358.44;;;18.80;100.00
67840;BME280;54636;51.684;5.142;2023-09-18T06:58:18;100356.81;;;18.84;100.00
67840;BME280;54636;51.684;5.142;2023-09-18T07:00:43;100356.97;;;18.86;100.00
67840;BME280;54636;51.684;5.142;2023-09-18T07:03:09;100369.63;;;18.89;100.00
67840;BME280;54636;51.684;5.142;2023-09-18T07:05:35;100364.84;;;18.90;100.00
67840;BME280;54636;51.684;5.142;2023-09-18T07:08:00;100362.09;;;18.97;100.00
67840;BME280;54636;51.684;5.142;2023-09-18T07:10:26;100354.94;;;18.94;100.00
67840;BME280;54636;51.684;5.142;2023-09-18T07:12:51;100352.56;;;18.91;100.00
67840;BME280;54636;51.684;5.142;2023-09-18T07:15:17;100361.38;;;18.97;100.00
67840;BME280;54636;51.684;5.142;2023-09-18T07:17:42;100361.75;;;18.93;100.00
67840;BME280;54636;51.684;5.142;2023-09-18T07:20:08;100346.69;;;18.87;100.00
67840;BME280;54636;51.684;5.142;2023-09-18T07:22:41;100343.38;;;18.88;100.00
67840;BME280;54636;51.684;5.142;2023-09-18T07:25:07;100351.84;;;19.05;100.00
67840;BME280;54636;51.684;5.142;2023-09-18T07:27:32;100344.50;;;18.93;100.00
67840;BME280;54636;51.684;5.142;2023-09-18T07:29:58;100354.03;;;18.99;100.00
67840;BME280;54636;51.684;5.142;2023-09-18T07:32:24;100333.47;;;18.85;100.00
67840;BME280;54636;51.684;5.142;2023-09-18T07:34:51;100329.28;;;18.84;100.00
67840;BME280;54636;51.684;5.142;2023-09-18T07:37:17;100333.31;;;18.98;100.00
67840;BME280;54636;51.684;5.142;2023-09-18T07:39:46;100356.78;;;19.15;100.00
67840;BME280;54636;51.684;5.142;2023-09-18T07:42:11;100369.47;;;19.18;100.00
67840;BME280;54636;51.684;5.142;2023-09-18T07:44:37;100358.44;;;19.18;100.00
67840;BME280;54636;51.684;5.142;2023-09-18T07:47:02;100373.31;;;19.30;100.00
67840;BME280;54636;51.684;5.142;2023-09-18T07:49:29;100393.88;;;19.36;100.00
67840;BME280;54636;51.684;5.142;2023-09-18T07:51:54;100352.94;;;19.18;100.00
67840;BME280;54636;51.684;5.142;2023-09-18T07:54:21;100380.84;;;19.37;100.00
67840;BME280;54636;51.684;5.142;2023-09-18T07:56:46;100386.69;;;19.49;100.00
67840;BME280;54636;51.684;5.142;2023-09-18T07:59:12;100389.25;;;19.54;100.00
67840;BME280;54636;51.684;5.142;2023-09-18T08:01:39;100376.03;;;19.53;100.00
67840;BME280;54636;51.684;5.142;2023-09-18T08:04:05;100383.56;;;19.60;100.00
67840;BME280;54636;51.684;5.142;2023-09-18T08:06:31;100384.28;;;19.60;100.00
67840;BME280;54636;51.684;5.142;2023-09-18T08:08:56;100395.28;;;19.76;100.00
67840;BME280;54636;51.684;5.142;2023-09-18T08:11:21;100396.94;;;19.79;100.00
67840;BME280;54636;51.684;5.142;2023-09-18T08:13:47;100399.88;;;19.81;100.00
67840;BME280;54636;51.684;5.142;2023-09-18T08:16:12;100402.44;;;19.79;100.00
67840;BME280;54636;51.684;5.142;2023-09-18T08:18:39;100390.91;;;19.57;100.00
67840;BME280;54636;51.684;5.142;2023-09-18T08:21:07;100385.97;;;19.56;100.00
67840;BME280;54636;51.684;5.142;2023-09-18T08:23:35;100397.88;;;19.58;100.00
67840;BME280;54636;51.684;5.142;2023-09-18T08:26:01;100402.66;;;19.65;100.00
67840;BME280;54636;51.684;5.142;2023-09-18T08:28:29;100375.84;;;19.51;100.00
67840;BME280;54636;51.684;5.142;2023-09-18T08:30:54;100392.19;;;19.64;100.00
67840;BME280;54636;51.684;5.142;2023-09-18T08:33:20;100411.25;;;19.85;100.00
67840;BME280;54636;51.684;5.142;2023-09-18T08:35:46;100406.47;;;19.93;100.00
67840;BME280;54636;51.684;5.142;2023-09-18T08:38:13;100402.75;;;20.05;100.00
67840;BME280;54636;51.684;5.142;2023-09-18T08:40:40;100391.28;;;20.17;100.00
67840;BME280;54636;51.684;5.142;2023-09-18T08:43:06;100395.63;;;20.35;100.00
67840;BME280;54636;51.684;5.142;2023-09-18T08:48:01;100404.34;;;20.64;100.00
67840;BME280;54636;51.684;5.142;2023-09-18T08:50:28;100372.09;;;20.42;100.00
67840;BME280;54636;51.684;5.142;2023-09-18T08:52:55;100407.16;;;20.81;100.00
67840;BME280;54636;51.684;5.142;2023-09-18T08:55:21;100405.63;;;20.88;100.00
67840;BME280;54636;51.684;5.142;2023-09-18T08:57:48;100409.88;;;21.14;100.00
67840;BME280;54636;51.684;5.142;2023-09-18T09:00:14;100392.56;;;21.13;100.00
67840;BME280;54636;51.684;5.142;2023-09-18T09:02:45;100419.25;;;21.43;100.00
67840;BME280;54636;51.684;5.142;2023-09-18T09:05:11;100415.81;;;21.52;100.00
67840;BME280;54636;51.684;5.142;2023-09-18T09:07:36;100410.47;;;21.54;100.00
67840;BME280;54636;51.684;5.142;2023-09-18T09:10:02;100407.16;;;21.73;100.00
67840;BME280;54636;51.684;5.142;2023-09-18T09:12:57;100435.88;;;22.12;100.00
67840;BME280;54636;51.684;5.142;2023-09-18T09:15:26;100445.09;;;22.42;100.00
67840;BME280;54636;51.684;5.142;2023-09-18T09:18:02;100438.59;;;22.47;99.18
67840;BME280;54636;51.684;5.142;2023-09-18T09:20:28;100453.06;;;22.55;96.94
67840;BME280;54636;51.684;5.142;2023-09-18T09:23:00;100447.41;;;22.35;96.42
67840;BME280;54636;51.684;5.142;2023-09-18T09:25:30;100468.00;;;22.25;96.47
67840;BME280;54636;51.684;5.142;2023-09-18T09:28:01;100469.00;;;22.02;97.65
67840;BME280;54636;51.684;5.142;2023-09-18T09:30:28;100467.66;;;21.86;97.93
67840;BME280;54636;51.684;5.142;2023-09-18T09:32:55;100470.50;;;21.79;99.27
67840;BME280;54636;51.684;5.142;2023-09-18T09:37:47;100475.66;;;21.57;98.91
67840;BME280;54636;51.684;5.142;2023-09-18T09:40:13;100473.59;;;21.41;100.00
67840;BME280;54636;51.684;5.142;2023-09-18T09:42:40;100452.94;;;21.17;100.00
67840;BME280;54636;51.684;5.142;2023-09-18T09:45:13;100476.72;;;21.12;100.00
67840;BME280;54636;51.684;5.142;2023-09-18T09:47:40;100475.81;;;21.10;100.00
67840;BME280;54636;51.684;5.142;2023-09-18T09:50:07;100462.09;;;20.94;100.00
67840;BME280;54636;51.684;5.142;2023-09-18T09:52:34;100483.97;;;21.00;100.00
67840;BME280;54636;51.684;5.142;2023-09-18T09:55:01;100439.25;;;20.69;100.00
67840;BME280;54636;51.684;5.142;2023-09-18T09:57:26;100478.41;;;21.08;100.00
67840;BME280;54636;51.684;5.142;2023-09-18T09:59:51;100453.94;;;21.04;100.00
67840;BME280;54636;51.684;5.142;2023-09-18T10:02:20;100460.94;;;21.05;100.00
67840;BME280;54636;51.684;5.142;2023-09-18T10:04:49;100485.34;;;21.16;100.00
67840;BME280;54636;51.684;5.142;2023-09-18T10:07:15;100475.28;;;21.03;100.00
67840;BME280;54636;51.684;5.142;2023-09-18T10:09:42;100501.28;;;21.00;100.00
67840;BME280;54636;51.684;5.142;2023-09-18T10:12:15;100477.88;;;20.77;100.00
67840;BME280;54636;51.684;5.142;2023-09-18T10:14:47;100493.63;;;20.84;100.00
67840;BME280;54636;51.684;5.142;2023-09-18T10:17:18;100483.38;;;20.77;100.00
67840;BME280;54636;51.684;5.142;2023-09-18T10:20:08;100498.31;;;20.74;100.00
67840;BME280;54636;51.684;5.142;2023-09-18T10:22:53;100497.59;;;20.65;100.00
67840;BME280;54636;51.684;5.142;2023-09-18T10:25:29;100513.81;;;20.61;100.00
67840;BME280;54636;51.684;5.142;2023-09-18T10:27:56;100496.38;;;20.51;100.00
67840;BME280;54636;51.684;5.142;2023-09-18T10:30:27;100508.16;;;20.44;100.00
67840;BME280;54636;51.684;5.142;2023-09-18T10:32:56;100498.06;;;20.39;100.00
67840;BME280;54636;51.684;5.142;2023-09-18T10:35:23;100495.31;;;20.39;100.00
67840;BME280;54636;51.684;5.142;2023-09-18T10:37:49;100491.44;;;20.42;100.00
67840;BME280;54636;51.684;5.142;2023-09-18T10:40:17;100498.56;;;20.53;100.00
67840;BME280;54636;51.684;5.142;2023-09-18T10:42:42;100493.06;;;20.53;100.00
67840;BME280;54636;51.684;5.142;2023-09-18T10:45:09;100492.69;;;20.49;100.00
67840;BME280;54636;51.684;5.142;2023-09-18T10:47:38;100476.63;;;20.62;100.00
67840;BME280;54636;51.684;5.142;2023-09-18T10:50:04;100461.16;;;20.67;100.00
67840;BME280;54636;51.684;5.142;2023-09-18T10:52:32;100467.56;;;21.02;100.00
67840;BME280;54636;51.684;5.142;2023-09-18T10:54:58;100482.84;;;21.35;100.00
67840;BME280;54636;51.684;5.142;2023-09-18T10:57:24;100460.81;;;21.45;100.00
67840;BME280;54636;51.684;5.142;2023-09-18T10:59:49;100493.97;;;21.70;98.13
67840;BME280;54636;51.684;5.142;2023-09-18T11:02:16;100497.25;;;21.93;97.27
67840;BME280;54636;51.684;5.142;2023-09-18T11:04:42;100475.75;;;22.09;98.89
67840;BME280;54636;51.684;5.142;2023-09-18T11:07:08;100489.88;;;22.30;95.17
67840;BME280;54636;51.684;5.142;2023-09-18T11:09:44;100452.00;;;22.06;96.24
67840;BME280;54636;51.684;5.142;2023-09-18T11:12:11;100486.88;;;22.36;92.96
67840;BME280;54636;51.684;5.142;2023-09-18T11:17:35;100494.44;;;22.35;94.53
67840;BME280;54636;51.684;5.142;2023-09-18T11:20:06;100478.09;;;22.13;93.25
67840;BME280;54636;51.684;5.142;2023-09-18T11:22:45;100474.81;;;21.89;93.11
67840;BME280;54636;51.684;5.142;2023-09-18T11:28:00;100486.69;;;21.82;94.54
67840;BME280;54636;51.684;5.142;2023-09-18T11:30:27;100466.41;;;21.62;95.00
67840;BME280;54636;51.684;5.142;2023-09-18T11:32:54;100479.09;;;21.65;92.53
67840;BME280;54636;51.684;5.142;2023-09-18T11:35:21;100481.06;;;21.73;94.47
67840;BME280;54636;51.684;5.142;2023-09-18T11:37:47;100492.03;;;21.80;93.33
67840;BME280;54636;51.684;5.142;2023-09-18T11:40:32;100481.56;;;21.96;94.01
67840;BME280;54636;51.684;5.142;2023-09-18T11:43:21;100471.56;;;22.00;92.85
67840;BME280;54636;51.684;5.142;2023-09-18T11:45:58;100479.13;;;22.17;91.75
67840;BME280;54636;51.684;5.142;2023-09-18T11:48:26;100470.84;;;22.34;91.87
67840;BME280;54636;51.684;5.142;2023-09-18T11:50:56;100469.25;;;22.58;91.55
67840;BME280;54636;51.684;5.142;2023-09-18T11:53:23;100467.50;;;22.80;89.97
67840;BME280;54636;51.684;5.142;2023-09-18T11:55:49;100454.50;;;22.73;88.70
67840;BME280;54636;51.684;5.142;2023-09-18T11:58:14;100451.72;;;22.73;88.40
67840;BME280;54636;51.684;5.142;2023-09-18T12:00:40;100458.84;;;22.76;88.08
67840;BME280;54636;51.684;5.142;2023-09-18T12:03:20;100472.19;;;22.87;88.34
67840;BME280;54636;51.684;5.142;2023-09-18T12:05:54;100462.53;;;22.79;88.42
67840;BME280;54636;51.684;5.142;2023-09-18T12:08:20;100479.25;;;22.98;84.18
67840;BME280;54636;51.684;5.142;2023-09-18T12:10:49;100458.34;;;22.87;85.94
67840;BME280;54636;51.684;5.142;2023-09-18T12:13:15;100462.75;;;22.90;85.69
67840;BME280;54636;51.684;5.142;2023-09-18T12:15:40;100467.34;;;23.05;86.59
67840;BME280;54636;51.684;5.142;2023-09-18T12:18:07;100455.63;;;22.97;84.34
67840;BME280;54636;51.684;5.142;2023-09-18T12:20:33;100451.19;;;23.11;85.01
67840;BME280;54636;51.684;5.142;2023-09-18T12:23:01;100443.31;;;23.17;82.98
67840;BME280;54636;51.684;5.142;2023-09-18T12:25:27;100445.84;;;23.42;82.76
67840;BME280;54636;51.684;5.142;2023-09-18T12:27:54;100452.63;;;23.58;82.76
67840;BME280;54636;51.684;5.142;2023-09-18T12:30:20;100459.78;;;23.61;80.78
67840;BME280;54636;51.684;5.142;2023-09-18T12:32:46;100467.34;;;23.51;80.89
67840;BME280;54636;51.684;5.142;2023-09-18T12:35:15;100455.78;;;23.45;81.07
67840;BME280;54636;51.684;5.142;2023-09-18T12:37:43;100451.97;;;23.41;80.49
67840;BME280;54636;51.684;5.142;2023-09-18T12:40:26;100451.13;;;23.38;83.24
67840;BME280;54636;51.684;5.142;2023-09-18T12:42:53;100446.13;;;23.27;82.42
67840;BME280;54636;51.684;5.142;2023-09-18T12:45:19;100421.31;;;23.19;81.70
67840;BME280;54636;51.684;5.142;2023-09-18T12:47:45;100440.91;;;23.41;81.83
67840;BME280;54636;51.684;5.142;2023-09-18T12:50:14;100442.63;;;23.26;81.94
67840;BME280;54636;51.684;5.142;2023-09-18T12:52:40;100417.34;;;23.13;80.60
67840;BME280;54636;51.684;5.142;2023-09-18T12:55:06;100416.69;;;22.95;81.56
67840;BME280;54636;51.684;5.142;2023-09-18T12:57:34;100404.91;;;22.94;80.66